»·PEaware :: N2Q KFUL-11CL

N2Q :: KFUL-11CL

FLIGHT INFORMATION

Flight Status: Arrived
Operator: Privately registered:
United States
More flights under this callsign
Pilot: Peter H. (12565)
Aircraft: CESSNA 208 CARAVAN
(C208)
More flights by this aircraft type
Origin: KFUL Fullerton Mun
United States
Destination: 11CL Hansen
United States
More flights between these airports :: More routes between these airports
Route: +SLI V8 PDZ V442 APLES
File this flight plan on PilotEdge
Remarks:
Altitude:
(Current/Filed)
11,500ft
Speed:
(Current/Filed)
150kts
Departed: 17-Nov-17 02:35 PM
Arrived: 17-Nov-17 03:16 PM
Distance/Time
Traveled:
48nm/0:41
Distance/Time
To Go:
Arrived

Flight Plot

Page will automatically refresh every two minutes.

Flight plan parsing failed; only flown route is shown


Map Options




Map Legend


Flown Route
Filed Route
Departure Airport
Arrival Airport
Navaid (VOR, NDB)
Fix

Horizontal Profiles

Position Reports

Time Latitude Longitude Heading Altitude Ground
Speed
17-Nov-17 14:28 33.871160 -117.978164 0 94ft 0kts
17-Nov-17 14:29 33.871160 -117.978164 259 94ft 0kts
17-Nov-17 14:30 33.871160 -117.978164 259 94ft 0kts
17-Nov-17 14:31 33.871160 -117.978164 259 94ft 0kts
17-Nov-17 14:32 33.871160 -117.978164 259 94ft 0kts
17-Nov-17 14:33 33.871160 -117.978164 259 94ft 0kts
17-Nov-17 14:34 33.871160 -117.978164 259 94ft 0kts
17-Nov-17 14:35 33.871160 -117.978164 259 94ft 0kts
17-Nov-17 14:36 33.871160 -117.978164 259 94ft 0kts
17-Nov-17 14:37 33.871160 -117.978164 259 94ft 0kts
17-Nov-17 14:38 33.871816 -117.977839 45 95ft 15kts
17-Nov-17 14:39 33.872887 -117.975361 243 97ft 2kts
17-Nov-17 14:40 33.869106 -117.995562 256 425ft 96kts
17-Nov-17 14:41 33.848315 -117.987222 132 1119ft 118kts
17-Nov-17 14:42 33.827098 -117.956608 133 1794ft 122kts
17-Nov-17 14:43 33.805010 -117.926175 132 2473ft 122kts
17-Nov-17 14:44 33.782764 -117.895597 133 3079ft 129kts
17-Nov-17 14:45 33.759593 -117.861716 133 3795ft 132kts
17-Nov-17 14:46 33.737175 -117.827723 114 4776ft 133kts
17-Nov-17 14:47 33.749083 -117.795751 356 5631ft 106kts
17-Nov-17 14:48 33.778433 -117.795631 353 6594ft 110kts
17-Nov-17 14:49 33.810372 -117.791242 359 7005ft 137kts
17-Nov-17 14:50 33.841414 -117.785123 1 7018ft 147kts
17-Nov-17 14:51 33.866290 -117.733690 68 7019ft 172kts
17-Nov-17 14:52 33.878070 -117.688010 68 7019ft 173kts
17-Nov-17 14:53 33.894348 -117.624368 68 7019ft 173kts
17-Nov-17 14:54 33.906077 -117.578381 68 7019ft 173kts
17-Nov-17 14:55 33.921436 -117.529745 27 7850ft 140kts
17-Nov-17 14:56 33.951232 -117.510509 15 8592ft 134kts
17-Nov-17 14:57 33.984832 -117.490441 15 9022ft 151kts
17-Nov-17 14:58 34.024035 -117.466861 17 9003ft 161kts
17-Nov-17 14:59 34.064133 -117.442719 17 8992ft 161kts
17-Nov-17 15:00 34.102636 -117.419548 17 8991ft 160kts
17-Nov-17 15:01 34.140034 -117.397004 17 8997ft 159kts
17-Nov-17 15:02 34.178816 -117.373617 17 9020ft 159kts
17-Nov-17 15:03 34.215545 -117.351424 17 9020ft 160kts
17-Nov-17 15:04 34.254032 -117.328243 21 9019ft 160kts
17-Nov-17 15:05 34.293241 -117.304451 20 9022ft 159kts
17-Nov-17 15:06 34.332215 -117.280842 16 9025ft 160kts
17-Nov-17 15:07 34.372135 -117.256668 17 9021ft 160kts
17-Nov-17 15:08 34.411477 -117.232802 16 9022ft 161kts
17-Nov-17 15:09 34.451363 -117.208586 16 9020ft 160kts
17-Nov-17 15:10 34.477087 -117.231493 292 9017ft 131kts
17-Nov-17 15:11 34.491975 -117.271966 291 9022ft 136kts
17-Nov-17 15:12 34.507164 -117.313690 292 9018ft 143kts
17-Nov-17 15:13 34.522888 -117.357019 293 9015ft 142kts
17-Nov-17 15:14 34.539516 -117.402948 290 8000ft 163kts
17-Nov-17 15:15 34.557504 -117.452792 291 6587ft 168kts
17-Nov-17 15:16 34.575343 -117.502243 291 5170ft 157kts
17-Nov-17 15:17 34.585600 -117.530564 291 5019ft 137kts
17-Nov-17 15:18 34.601538 -117.569377 278 4919ft 124kts
17-Nov-17 15:19 34.620647 -117.606735 283 3912ft 136kts
17-Nov-17 15:20 34.629091 -117.633575 285 3176ft 68kts
17-Nov-17 15:21 34.630450 -117.650123 282 2856ft 13kts
17-Nov-17 15:22 34.630486 -117.650354 277 2856ft 0kts

Navigation Log

Ident Type
Flight plan parsing failed, navigation log unavailable